createdAt,value
2022-10-15T00:00:40.228Z,12.40
2022-10-15T00:03:35.415Z,13.67
2022-10-15T00:06:23.544Z,11.90
2022-10-15T00:09:18.317Z,11.13
2022-10-15T00:12:07.094Z,12.83
2022-10-15T00:14:55.618Z,11.07
2022-10-15T00:17:44.336Z,11.73
2022-10-15T00:20:32.435Z,12.97
2022-10-15T00:23:21.375Z,13.43
2022-10-15T00:26:13.083Z,13.37
2022-10-15T00:31:50.261Z,9.23
2022-10-15T00:34:38.713Z,12.90
2022-10-15T00:37:27.564Z,11.20
2022-10-15T00:40:15.886Z,10.83
2022-10-15T00:43:03.825Z,12.20
2022-10-15T00:45:51.813Z,10.47
2022-10-15T00:48:41.044Z,10.93
2022-10-15T00:51:45.168Z,14.20
2022-10-15T00:54:38.630Z,10.27
2022-10-15T00:57:27.130Z,12.95
2022-10-15T01:00:19.421Z,9.43
2022-10-15T01:03:08.206Z,14.07
2022-10-15T01:05:57.214Z,10.27
2022-10-15T01:08:45.916Z,10.53
2022-10-15T01:11:41.153Z,11.37
2022-10-15T01:14:40.082Z,11.13
2022-10-15T01:17:35.319Z,11.73
2022-10-15T01:20:49.050Z,10.70
2022-10-15T01:24:26.506Z,13.40
2022-10-15T01:27:31.204Z,11.13
2022-10-15T01:30:30.437Z,10.20
2022-10-15T01:33:32.269Z,10.63
2022-10-15T01:36:27.672Z,9.93
2022-10-15T01:39:22.075Z,11.57
2022-10-15T01:42:17.614Z,10.23
2022-10-15T01:45:10.855Z,8.60
2022-10-15T01:48:21.324Z,11.70
2022-10-15T01:51:13.375Z,11.00
2022-10-15T01:54:02.345Z,9.45
2022-10-15T01:56:51.678Z,10.97
2022-10-15T01:59:43.446Z,10.28
2022-10-15T02:02:31.639Z,10.07
2022-10-15T02:05:25.750Z,10.37
2022-10-15T02:08:27.921Z,11.40
2022-10-15T02:11:18.896Z,8.87
2022-10-15T02:14:13.822Z,8.93
2022-10-15T02:17:09.611Z,10.23
2022-10-15T02:20:05.405Z,9.35
2022-10-15T02:23:01.551Z,9.73
2022-10-15T02:25:52.534Z,10.65
2022-10-15T02:28:44.424Z,10.00
2022-10-15T02:31:35.507Z,8.88
2022-10-15T02:34:29.717Z,9.73
2022-10-15T02:37:23.256Z,9.73
2022-10-15T02:40:12.481Z,7.90
2022-10-15T02:43:03.532Z,9.37
2022-10-15T02:45:52.001Z,8.80
2022-10-15T02:48:41.830Z,8.47
2022-10-15T02:51:33.870Z,12.47
2022-10-15T02:54:21.919Z,9.57
2022-10-15T02:57:10.867Z,9.23
2022-10-15T03:00:00.565Z,8.83
2022-10-15T03:02:49.350Z,11.17
2022-10-15T03:05:40.323Z,11.90
2022-10-15T03:08:29.166Z,7.83
2022-10-15T03:11:17.722Z,8.30
2022-10-15T03:14:05.862Z,9.40
2022-10-15T03:16:55.568Z,10.67
2022-10-15T03:19:44.507Z,8.75
2022-10-15T03:22:32.937Z,8.07
2022-10-15T03:25:21.736Z,10.53
2022-10-15T03:28:13.245Z,10.38
2022-10-15T03:31:02.551Z,7.53
2022-10-15T03:33:51.403Z,8.57
2022-10-15T03:36:42.350Z,7.97
2022-10-15T03:39:31.671Z,8.77
2022-10-15T03:42:23.422Z,7.93
2022-10-15T03:45:12.540Z,8.17
2022-10-15T03:48:01.216Z,9.53
2022-10-15T03:50:51.498Z,9.77
2022-10-15T03:53:40.391Z,9.93
2022-10-15T03:56:28.559Z,10.93
2022-10-15T03:59:22.312Z,14.07
2022-10-15T04:02:16.980Z,15.73
2022-10-15T04:05:07.182Z,9.83
2022-10-15T04:07:58.184Z,9.33
2022-10-15T04:10:47.119Z,9.77
2022-10-15T04:13:35.569Z,8.67
2022-10-15T04:16:24.042Z,10.00
2022-10-15T04:19:13.004Z,10.20
2022-10-15T04:22:01.333Z,11.03
2022-10-15T04:24:58.076Z,7.57
2022-10-15T04:27:48.528Z,10.97
2022-10-15T04:30:38.726Z,11.37
2022-10-15T04:33:29.502Z,10.70
2022-10-15T04:36:21.198Z,12.30
2022-10-15T04:39:16.064Z,10.20
2022-10-15T04:42:05.926Z,9.33
2022-10-15T04:44:55.195Z,11.03
2022-10-15T04:47:43.436Z,12.07
2022-10-15T04:50:37.759Z,12.03
2022-10-15T04:53:52.935Z,13.03
2022-10-15T04:56:41.320Z,12.17
2022-10-15T04:59:29.586Z,9.67
2022-10-15T05:02:41.395Z,11.23
2022-10-15T05:05:37.106Z,12.77
2022-10-15T05:08:29.121Z,11.43
2022-10-15T05:11:43.140Z,9.83
2022-10-15T05:14:35.317Z,12.97
2022-10-15T05:17:27.207Z,11.90
2022-10-15T05:20:16.139Z,10.67
2022-10-15T05:23:05.933Z,13.73
2022-10-15T05:25:55.500Z,13.67
2022-10-15T05:28:45.399Z,15.47
2022-10-15T05:31:41.992Z,14.03
2022-10-15T05:34:50.105Z,12.53
2022-10-15T05:37:38.577Z,13.60
2022-10-15T05:40:27.726Z,17.20
2022-10-15T05:43:38.880Z,13.83
2022-10-15T05:46:31.879Z,13.43
2022-10-15T05:49:19.769Z,13.47
2022-10-15T05:52:13.774Z,13.43
2022-10-15T05:55:21.235Z,14.97
2022-10-15T05:58:09.623Z,13.83
2022-10-15T06:00:59.912Z,14.33
2022-10-15T06:03:47.840Z,13.47
2022-10-15T06:06:35.804Z,15.00
2022-10-15T06:09:25.029Z,12.53
2022-10-15T06:12:13.013Z,14.20
2022-10-15T06:15:00.893Z,13.00
2022-10-15T06:17:51.872Z,17.33
2022-10-15T06:20:40.179Z,12.47
2022-10-15T06:23:28.816Z,13.30
2022-10-15T06:26:16.896Z,11.90
2022-10-15T06:29:06.916Z,14.30
2022-10-15T06:31:55.313Z,17.90
2022-10-15T06:34:43.212Z,11.53
2022-10-15T06:37:31.549Z,15.23
2022-10-15T06:40:20.592Z,10.40
2022-10-15T06:43:11.555Z,15.10
2022-10-15T06:46:01.338Z,13.37
2022-10-15T06:48:51.334Z,10.77
2022-10-15T06:51:39.421Z,13.00
2022-10-15T06:54:27.443Z,13.20
2022-10-15T06:57:16.135Z,12.37
2022-10-15T07:00:05.331Z,17.57
2022-10-15T07:02:53.920Z,12.43
2022-10-15T07:05:42.061Z,11.43
2022-10-15T07:08:30.459Z,15.70
2022-10-15T07:11:18.973Z,13.10
2022-10-15T07:14:07.144Z,12.10
2022-10-15T07:16:56.313Z,11.23
2022-10-15T07:19:44.471Z,12.13
2022-10-15T07:22:32.664Z,11.47
2022-10-15T07:25:20.737Z,8.47
2022-10-15T07:28:09.099Z,11.47
2022-10-15T07:31:02.928Z,9.33
2022-10-15T07:33:50.900Z,11.00
2022-10-15T07:36:39.418Z,10.73
2022-10-15T07:39:29.088Z,14.37
2022-10-15T07:42:17.525Z,8.87
2022-10-15T07:45:08.462Z,11.63
2022-10-15T07:47:56.402Z,9.60
2022-10-15T07:50:44.713Z,12.33
2022-10-15T07:53:33.767Z,8.43
2022-10-15T07:56:21.856Z,9.07
2022-10-15T07:59:09.805Z,9.60
2022-10-15T08:01:57.847Z,9.83
2022-10-15T08:04:46.151Z,13.67
2022-10-15T08:07:34.628Z,14.30
2022-10-15T08:10:23.395Z,11.37
2022-10-15T08:13:11.080Z,10.83
2022-10-15T08:16:00.325Z,11.57
2022-10-15T08:18:49.195Z,11.03
2022-10-15T08:21:38.535Z,10.10
2022-10-15T08:24:26.795Z,10.97
2022-10-15T08:27:15.331Z,14.67
2022-10-15T08:30:04.154Z,8.47
2022-10-15T08:32:52.819Z,11.20
2022-10-15T08:35:43.720Z,11.10
2022-10-15T08:38:33.772Z,10.83
2022-10-15T08:45:35.772Z,9.63
2022-10-15T08:48:30.855Z,15.63
2022-10-15T08:51:23.227Z,8.97
2022-10-15T08:54:17.631Z,14.37
2022-10-15T08:57:44.888Z,10.23
2022-10-15T09:00:52.108Z,12.03
2022-10-15T09:04:15.078Z,12.93
2022-10-15T09:07:21.699Z,11.20
2022-10-15T09:10:18.287Z,9.13
2022-10-15T09:13:13.960Z,8.60
2022-10-15T09:16:13.597Z,8.63
2022-10-15T09:19:12.550Z,12.33
2022-10-15T09:22:03.290Z,11.00
2022-10-15T09:24:52.553Z,7.50
2022-10-15T09:27:40.962Z,9.20
2022-10-15T09:30:37.816Z,7.90
2022-10-15T09:33:38.798Z,9.97
2022-10-15T09:36:40.258Z,9.40
2022-10-15T09:39:46.734Z,11.70
2022-10-15T09:42:38.135Z,11.50
2022-10-15T09:45:26.017Z,8.23
2022-10-15T09:48:18.320Z,15.30
2022-10-15T09:51:16.797Z,9.33
2022-10-15T09:54:16.493Z,11.80
2022-10-15T09:57:09.863Z,8.70
2022-10-15T10:00:00.780Z,8.73
2022-10-15T10:03:06.712Z,10.37
2022-10-15T10:06:02.855Z,11.53
2022-10-15T10:09:00.615Z,9.77
2022-10-15T10:11:53.646Z,10.57
2022-10-15T10:14:46.988Z,11.20
2022-10-15T10:17:35.125Z,8.40
2022-10-15T10:20:24.868Z,10.17
2022-10-15T10:23:24.077Z,10.07
2022-10-15T10:26:15.382Z,8.35
2022-10-15T10:29:15.783Z,13.47
2022-10-15T10:32:21.410Z,10.97
2022-10-15T10:35:22.798Z,12.57
2022-10-15T10:38:23.804Z,10.83
2022-10-15T10:41:12.563Z,11.43
2022-10-15T10:44:00.615Z,13.93
2022-10-15T10:47:06.771Z,11.03
2022-10-15T10:49:57.321Z,9.40
2022-10-15T10:52:45.463Z,17.03
2022-10-15T10:55:39.345Z,13.47
2022-10-15T10:58:33.366Z,12.23
2022-10-15T11:04:15.461Z,9.43
2022-10-15T11:07:17.005Z,8.43
2022-10-15T11:10:16.883Z,9.03
2022-10-15T11:13:26.447Z,10.63
2022-10-15T11:16:30.215Z,12.33
2022-10-15T11:19:54.546Z,14.37
2022-10-15T11:22:48.202Z,9.53
2022-10-15T11:25:46.993Z,9.53
2022-10-15T11:28:50.507Z,14.43
2022-10-15T11:32:01.718Z,8.73
2022-10-15T11:35:40.804Z,12.80
2022-10-15T11:38:39.758Z,10.47
2022-10-15T11:41:40.199Z,17.80
2022-10-15T11:44:47.856Z,14.93
2022-10-15T11:47:47.762Z,13.30
2022-10-15T11:50:44.762Z,9.90
2022-10-15T11:54:06.517Z,11.50
2022-10-15T11:56:59.463Z,30.07
2022-10-15T11:59:55.868Z,10.33
2022-10-15T12:02:45.374Z,10.37
2022-10-15T12:05:38.916Z,9.27
2022-10-15T12:08:30.863Z,8.20
2022-10-15T12:14:22.375Z,8.43
2022-10-15T12:17:22.341Z,8.20
2022-10-15T12:20:16.423Z,9.60
2022-10-15T12:23:05.093Z,11.97
2022-10-15T12:25:54.613Z,9.47
2022-10-15T12:28:50.568Z,10.40
2022-10-15T12:31:48.031Z,13.63
2022-10-15T12:34:41.519Z,12.10
2022-10-15T12:37:33.913Z,14.33
2022-10-15T12:40:29.496Z,10.07
2022-10-15T12:43:20.858Z,13.93
2022-10-15T12:46:10.770Z,9.88
2022-10-15T12:48:58.805Z,9.07
2022-10-15T12:51:46.796Z,9.90
2022-10-15T12:54:41.453Z,10.13
2022-10-15T12:58:08.093Z,10.13
2022-10-15T13:00:56.820Z,10.50
2022-10-15T13:03:52.672Z,11.87
2022-10-15T13:06:40.708Z,9.33
2022-10-15T13:09:31.773Z,10.60
2022-10-15T13:12:26.381Z,16.30
2022-10-15T13:15:16.948Z,15.20
2022-10-15T13:18:11.101Z,12.10
2022-10-15T13:23:50.397Z,10.00
2022-10-15T13:26:39.188Z,8.03
2022-10-15T13:29:28.547Z,9.23
2022-10-15T13:32:16.975Z,12.93
2022-10-15T13:35:12.226Z,7.97
2022-10-15T13:38:03.133Z,9.60
2022-10-15T13:40:53.804Z,10.10
2022-10-15T13:43:54.497Z,7.90
2022-10-15T13:46:42.675Z,8.77
2022-10-15T13:49:31.013Z,9.10
2022-10-15T13:52:19.632Z,9.33
2022-10-15T13:55:17.106Z,12.07
2022-10-15T13:58:17.446Z,12.80
2022-10-15T14:01:10.030Z,10.23
2022-10-15T14:06:56.925Z,11.17
2022-10-15T14:09:47.988Z,14.20
2022-10-15T14:12:36.321Z,9.37
2022-10-15T14:15:57.385Z,12.47
2022-10-15T14:18:49.370Z,11.30
2022-10-15T14:21:46.904Z,9.97
2022-10-15T14:24:38.007Z,8.60
2022-10-15T14:27:28.530Z,8.00
2022-10-15T14:30:25.132Z,8.00
2022-10-15T14:33:31.637Z,9.80
2022-10-15T14:36:29.986Z,10.37
2022-10-15T14:39:29.954Z,8.90
2022-10-15T14:42:31.390Z,8.57
2022-10-15T14:45:25.971Z,11.90
2022-10-15T14:48:20.720Z,7.77
2022-10-15T14:51:17.849Z,10.70
2022-10-15T14:54:06.587Z,13.10
2022-10-15T14:56:55.325Z,11.77
2022-10-15T14:59:44.710Z,12.93
2022-10-15T15:02:32.493Z,13.40
2022-10-15T15:05:24.410Z,10.63
2022-10-15T15:08:12.747Z,16.37
2022-10-15T15:11:04.350Z,19.30
2022-10-15T15:13:54.879Z,19.70
2022-10-15T15:16:43.274Z,12.83
2022-10-15T15:19:32.092Z,17.27
2022-10-15T15:22:25.662Z,16.97
2022-10-15T15:25:19.303Z,16.13
2022-10-15T15:28:14.162Z,13.87
2022-10-15T15:31:05.905Z,20.80
2022-10-15T15:33:54.349Z,24.00
2022-10-15T15:36:43.090Z,18.07
2022-10-15T15:39:31.358Z,16.30
2022-10-15T15:42:22.970Z,26.43
2022-10-15T15:45:20.300Z,17.07
2022-10-15T15:48:08.287Z,21.53
2022-10-15T15:51:04.340Z,27.13
2022-10-15T15:53:52.615Z,24.70
2022-10-15T15:56:41.174Z,25.93
2022-10-15T15:59:29.286Z,28.50
2022-10-15T16:02:17.628Z,34.05
2022-10-15T16:05:07.613Z,35.80
2022-10-15T16:07:56.644Z,33.40
2022-10-15T16:10:45.332Z,36.07
2022-10-15T16:13:34.201Z,24.87
2022-10-15T16:16:24.014Z,29.60
2022-10-15T16:19:12.149Z,33.33
2022-10-15T16:22:00.489Z,29.87
2022-10-15T16:24:49.255Z,31.80
2022-10-15T16:27:37.499Z,37.67
2022-10-15T16:30:25.719Z,40.37
2022-10-15T16:33:14.558Z,49.03
2022-10-15T16:36:03.154Z,49.10
2022-10-15T16:38:51.227Z,49.93
2022-10-15T16:41:39.222Z,41.90
2022-10-15T16:44:27.564Z,33.23
2022-10-15T16:47:16.207Z,38.13
2022-10-15T16:50:05.259Z,38.10
2022-10-15T16:52:53.666Z,33.60
2022-10-15T16:55:41.709Z,31.00
2022-10-15T16:58:31.202Z,35.20
2022-10-15T17:01:22.435Z,47.97
2022-10-15T17:04:10.663Z,76.07
2022-10-15T17:06:59.017Z,88.50
2022-10-15T17:12:40.596Z,126.87
2022-10-15T17:15:28.923Z,104.93
2022-10-15T17:18:16.984Z,87.33
2022-10-15T17:21:07.368Z,73.17
2022-10-15T17:23:57.558Z,56.90
2022-10-15T17:26:47.558Z,53.63
2022-10-15T17:29:35.894Z,54.57
2022-10-15T17:32:25.655Z,43.07
2022-10-15T17:35:14.918Z,34.90
2022-10-15T17:38:03.189Z,47.30
2022-10-15T17:40:51.434Z,49.87
2022-10-15T17:43:40.330Z,60.47
2022-10-15T17:46:30.105Z,55.90
2022-10-15T17:49:18.943Z,46.47
2022-10-15T17:52:06.907Z,56.27
2022-10-15T17:54:55.153Z,45.43
2022-10-15T17:57:43.664Z,38.17
2022-10-15T18:00:31.857Z,27.70
2022-10-15T18:03:20.471Z,30.90
2022-10-15T18:06:12.197Z,35.50
2022-10-15T18:09:00.478Z,37.48
2022-10-15T18:11:49.963Z,38.77
2022-10-15T18:14:38.399Z,37.97
2022-10-15T18:17:27.405Z,41.00
2022-10-15T18:20:16.968Z,32.53
2022-10-15T18:23:06.610Z,47.83
2022-10-15T18:26:02.318Z,41.47
2022-10-15T18:28:53.742Z,44.80
2022-10-15T18:31:42.037Z,37.03
2022-10-15T18:34:32.669Z,37.70
2022-10-15T18:37:20.621Z,35.03
2022-10-15T18:40:11.317Z,36.90
2022-10-15T18:42:59.262Z,40.27
2022-10-15T18:45:51.142Z,37.30
2022-10-15T18:48:39.367Z,39.43
2022-10-15T18:51:28.355Z,42.07
2022-10-15T18:54:16.270Z,39.60
2022-10-15T18:57:05.198Z,35.50
2022-10-15T19:02:41.417Z,37.67
2022-10-15T19:05:29.601Z,37.70
2022-10-15T19:08:20.711Z,37.53
2022-10-15T19:11:09.501Z,38.83
2022-10-15T19:13:59.363Z,41.27
2022-10-15T19:16:49.064Z,37.77
2022-10-15T19:19:38.316Z,37.93
2022-10-15T19:22:28.428Z,36.20
2022-10-15T19:25:18.072Z,39.07
2022-10-15T19:28:06.673Z,39.53
2022-10-15T19:31:00.268Z,39.73
2022-10-15T19:33:48.461Z,40.40
2022-10-15T19:36:40.007Z,38.23
2022-10-15T19:39:28.557Z,39.57
2022-10-15T19:42:18.444Z,31.93
2022-10-15T19:45:07.803Z,34.63
2022-10-15T19:48:01.442Z,32.93
2022-10-15T19:50:50.505Z,36.37
2022-10-15T19:53:39.549Z,38.97
2022-10-15T19:56:28.454Z,39.57
2022-10-15T19:59:16.845Z,40.87
2022-10-15T20:02:05.087Z,34.37
2022-10-15T20:04:53.697Z,36.87
2022-10-15T20:07:42.034Z,40.03
2022-10-15T20:10:30.654Z,31.60
2022-10-15T20:13:20.418Z,39.60
2022-10-15T20:16:11.017Z,32.07
2022-10-15T20:19:00.623Z,31.07
2022-10-15T20:24:38.184Z,31.90
2022-10-15T20:27:26.682Z,30.53
2022-10-15T20:30:15.365Z,38.90
2022-10-15T20:33:03.799Z,29.63
2022-10-15T20:35:51.627Z,29.97
2022-10-15T20:38:40.296Z,29.97
2022-10-15T20:41:28.301Z,27.77
2022-10-15T20:44:17.069Z,36.27
2022-10-15T20:47:08.500Z,40.70
2022-10-15T20:49:56.677Z,30.83
2022-10-15T20:52:46.018Z,32.77
2022-10-15T20:55:35.399Z,33.10
2022-10-15T20:58:24.177Z,34.20
2022-10-15T21:01:12.561Z,35.90
2022-10-15T21:04:01.093Z,32.37
2022-10-15T21:06:49.469Z,35.97
2022-10-15T21:09:38.087Z,38.20
2022-10-15T21:12:26.342Z,33.00
2022-10-15T21:15:15.043Z,32.73
2022-10-15T21:18:03.766Z,34.20
2022-10-15T21:20:51.509Z,31.37
2022-10-15T21:23:41.499Z,31.30
2022-10-15T21:26:29.559Z,29.97
2022-10-15T21:29:18.103Z,31.07
2022-10-15T21:32:06.911Z,30.30
2022-10-15T21:34:54.989Z,25.93
2022-10-15T21:37:43.312Z,27.60
2022-10-15T21:40:31.328Z,30.73
2022-10-15T21:43:19.948Z,26.37
2022-10-15T21:46:10.006Z,29.03
2022-10-15T21:48:59.510Z,27.47
2022-10-15T21:51:47.751Z,28.10
2022-10-15T21:54:35.929Z,28.50
2022-10-15T21:57:23.920Z,28.83
2022-10-15T22:00:16.494Z,27.55
2022-10-15T22:03:05.224Z,24.40
2022-10-15T22:05:53.531Z,24.93
2022-10-15T22:08:42.505Z,25.27
2022-10-15T22:11:33.078Z,26.23
2022-10-15T22:14:21.164Z,27.37
2022-10-15T22:17:09.119Z,27.03
2022-10-15T22:19:57.149Z,26.73
2022-10-15T22:22:45.277Z,25.20
2022-10-15T22:25:33.779Z,29.20
2022-10-15T22:28:21.742Z,28.77
2022-10-15T22:31:12.505Z,27.67
2022-10-15T22:34:01.862Z,26.13
2022-10-15T22:36:50.404Z,28.13
2022-10-15T22:39:39.318Z,25.77
2022-10-15T22:42:27.948Z,27.93
2022-10-15T22:45:16.806Z,28.47
2022-10-15T22:48:04.978Z,29.53
2022-10-15T22:50:57.553Z,29.57
2022-10-15T22:53:45.576Z,28.83
2022-10-15T22:56:34.358Z,28.63
2022-10-15T22:59:22.674Z,32.17
2022-10-15T23:02:10.880Z,26.87
2022-10-15T23:04:59.097Z,33.23
2022-10-15T23:07:47.488Z,29.87
2022-10-15T23:10:35.574Z,29.57
2022-10-15T23:13:23.743Z,28.63
2022-10-15T23:16:15.402Z,28.90
2022-10-15T23:19:06.799Z,34.33
2022-10-15T23:21:56.244Z,27.50
2022-10-15T23:24:44.459Z,26.73
2022-10-15T23:27:32.223Z,27.50
2022-10-15T23:30:25.116Z,27.53
2022-10-15T23:33:13.528Z,27.37
2022-10-15T23:36:04.140Z,29.60
2022-10-15T23:38:53.229Z,31.23
2022-10-15T23:41:41.651Z,30.67
2022-10-15T23:44:29.871Z,28.33
2022-10-15T23:47:18.078Z,30.17
2022-10-15T23:50:07.652Z,28.20
2022-10-15T23:52:56.906Z,28.97
2022-10-15T23:55:45.271Z,28.20
2022-10-15T23:58:34.339Z,31.23
